createdAt,value
2022-09-12T00:00:45.317Z,100139.59
2022-09-12T00:03:12.274Z,100144.06
2022-09-12T00:05:47.427Z,100138.75
2022-09-12T00:08:15.394Z,100132.56
2022-09-12T00:10:44.240Z,100122.88
2022-09-12T00:13:11.815Z,100120.22
2022-09-12T00:15:40.659Z,100116.84
2022-09-12T00:18:09.465Z,100111.50
2022-09-12T00:20:36.388Z,100114.19
2022-09-12T00:23:03.359Z,100111.66
2022-09-12T00:25:31.515Z,100110.81
2022-09-12T00:27:58.591Z,100104.63
2022-09-12T00:30:25.581Z,100112.63
2022-09-12T00:32:54.977Z,100109.09
2022-09-12T00:35:21.972Z,100105.59
2022-09-12T00:37:49.726Z,100101.25
2022-09-12T00:40:17.206Z,100103.91
2022-09-12T00:42:44.122Z,100095.06
2022-09-12T00:45:23.522Z,100090.72
2022-09-12T00:47:50.622Z,100088.91
2022-09-12T00:50:18.245Z,100078.41
2022-09-12T00:52:51.232Z,100076.53
2022-09-12T00:55:22.823Z,100080.19
2022-09-12T00:58:06.858Z,100084.69
2022-09-12T01:00:34.096Z,100084.69
2022-09-12T01:03:04.684Z,100091.81
2022-09-12T01:05:35.515Z,100090.97
2022-09-12T01:08:06.532Z,100093.63
2022-09-12T01:10:37.818Z,100092.81
2022-09-12T01:13:09.374Z,100086.63
2022-09-12T01:15:40.410Z,100087.59
2022-09-12T01:18:09.856Z,100089.28
2022-09-12T01:21:17.039Z,100090.25
2022-09-12T01:24:11.821Z,100085.91
2022-09-12T01:26:57.405Z,100081.56
2022-09-12T01:29:46.036Z,100073.56
2022-09-12T01:32:28.721Z,100076.22
2022-09-12T01:35:17.122Z,100090.50
2022-09-12T01:37:59.997Z,100082.50
2022-09-12T01:40:46.017Z,100081.69
2022-09-12T01:43:35.749Z,100077.34
2022-09-12T01:46:43.909Z,100073.13
2022-09-12T01:49:18.936Z,100082.75
2022-09-12T01:52:27.722Z,100085.44
2022-09-12T01:55:16.138Z,100084.72
2022-09-12T01:57:54.248Z,100087.38
2022-09-12T02:00:21.105Z,100091.75
2022-09-12T02:03:02.928Z,100091.84
2022-09-12T02:06:06.830Z,100090.03
2022-09-12T02:08:40.955Z,100097.19
2022-09-12T02:11:11.121Z,100094.66
2022-09-12T02:13:50.458Z,100089.34
2022-09-12T02:16:30.588Z,100096.38
2022-09-12T02:19:07.767Z,100092.94
2022-09-12T02:21:37.410Z,100094.91
2022-09-12T02:24:07.742Z,100086.81
2022-09-12T02:26:40.152Z,100089.34
2022-09-12T02:29:07.394Z,100084.97
2022-09-12T02:31:36.855Z,100082.31
2022-09-12T02:34:15.285Z,100080.63
2022-09-12T02:37:07.969Z,100078.94
2022-09-12T02:39:35.508Z,100064.78
2022-09-12T02:42:04.159Z,100067.44
2022-09-12T02:44:33.382Z,100069.25
2022-09-12T02:47:06.760Z,100072.91
2022-09-12T02:49:33.960Z,100071.09
2022-09-12T02:52:01.697Z,100074.56
2022-09-12T02:54:29.717Z,100071.09
2022-09-12T02:56:56.745Z,100064.91
2022-09-12T02:59:25.205Z,100067.56
2022-09-12T03:02:13.838Z,100064.91
2022-09-12T03:04:59.442Z,100073.00
2022-09-12T03:07:47.820Z,100068.53
2022-09-12T03:10:17.418Z,100082.84
2022-09-12T03:12:59.751Z,100083.66
2022-09-12T03:15:43.761Z,100085.50
2022-09-12T03:18:30.060Z,100081.13
2022-09-12T03:21:21.267Z,100075.81
2022-09-12T03:23:50.963Z,100082.09
2022-09-12T03:26:26.766Z,100075.81
2022-09-12T03:28:56.183Z,100078.63
2022-09-12T03:31:23.289Z,100084.75
2022-09-12T03:33:50.222Z,100087.41
2022-09-12T03:36:23.213Z,100089.25
2022-09-12T03:38:50.223Z,100088.41
2022-09-12T03:41:17.183Z,100090.34
2022-09-12T03:43:44.635Z,100085.03
2022-09-12T03:46:11.484Z,100092.03
2022-09-12T03:48:38.366Z,100090.34
2022-09-12T03:51:08.022Z,100085.84
2022-09-12T03:53:34.963Z,100087.69
2022-09-12T03:56:06.715Z,100088.66
2022-09-12T03:58:34.202Z,100095.69
2022-09-12T04:01:01.140Z,100101.13
2022-09-12T04:03:27.973Z,100101.00
2022-09-12T04:05:57.918Z,100101.97
2022-09-12T04:08:24.811Z,100101.13
2022-09-12T04:10:51.690Z,100108.25
2022-09-12T04:13:18.499Z,100110.91
2022-09-12T04:15:56.512Z,100111.91
2022-09-12T04:18:23.322Z,100111.91
2022-09-12T04:20:50.083Z,100110.19
2022-09-12T04:23:17.082Z,100104.88
2022-09-12T04:25:43.910Z,100107.53
2022-09-12T04:28:10.867Z,100108.63
2022-09-12T04:30:38.264Z,100114.81
2022-09-12T04:33:08.137Z,100119.28
2022-09-12T04:35:36.338Z,100111.28
2022-09-12T04:38:04.146Z,100123.75
2022-09-12T04:40:31.801Z,100122.78
2022-09-12T04:42:58.612Z,100113.97
2022-09-12T04:45:26.122Z,100121.09
2022-09-12T04:47:53.183Z,100110.44
2022-09-12T04:50:20.031Z,100113.81
2022-09-12T04:52:54.397Z,100112.84
2022-09-12T04:55:22.242Z,100119.03
2022-09-12T04:57:49.281Z,100109.59
2022-09-12T05:00:16.219Z,100111.44
2022-09-12T05:02:43.140Z,100111.28
2022-09-12T05:05:12.634Z,100113.00
2022-09-12T05:07:39.551Z,100118.31
2022-09-12T05:10:07.154Z,100120.13
2022-09-12T05:12:34.208Z,100120.97
2022-09-12T05:15:01.084Z,100127.13
2022-09-12T05:17:30.125Z,100127.13
2022-09-12T05:19:56.907Z,100136.81
2022-09-12T05:22:23.916Z,100134.88
2022-09-12T05:24:50.896Z,100139.34
2022-09-12T05:27:18.114Z,100140.78
2022-09-12T05:29:45.017Z,100138.00
2022-09-12T05:32:12.851Z,100146.72
2022-09-12T05:34:40.769Z,100143.91
2022-09-12T05:37:07.950Z,100139.31
2022-09-12T05:39:34.778Z,100137.38
2022-09-12T05:42:01.682Z,100139.19
2022-09-12T05:44:28.956Z,100138.22
2022-09-12T05:46:55.912Z,100138.22
2022-09-12T05:49:22.933Z,100140.06
2022-09-12T05:51:51.058Z,100139.19
2022-09-12T05:54:20.774Z,100142.50
2022-09-12T05:56:49.247Z,100139.69
2022-09-12T05:59:19.464Z,100139.44
2022-09-12T06:01:46.869Z,100144.63
2022-09-12T06:04:13.807Z,100141.00
2022-09-12T06:06:45.340Z,100149.09
2022-09-12T06:09:14.292Z,100148.16
2022-09-12T06:11:42.235Z,100156.84
2022-09-12T06:14:11.520Z,100163.88
2022-09-12T06:16:39.483Z,100153.94
2022-09-12T06:19:28.359Z,100152.13
2022-09-12T06:21:55.736Z,100157.31
2022-09-12T06:24:22.843Z,100150.31
2022-09-12T06:26:53.024Z,100152.13
2022-09-12T06:29:20.104Z,100165.31
2022-09-12T06:31:47.123Z,100157.31
2022-09-12T06:34:16.507Z,100160.81
2022-09-12T06:36:46.114Z,100162.53
2022-09-12T06:39:18.562Z,100165.06
2022-09-12T06:41:45.979Z,100155.50
2022-09-12T06:44:18.244Z,100162.16
2022-09-12T06:46:45.295Z,100160.59
2022-09-12T06:49:12.603Z,100155.19
2022-09-12T06:51:39.616Z,100165.81
2022-09-12T06:54:06.515Z,100169.44
2022-09-12T06:56:34.441Z,100172.81
2022-09-12T06:59:01.534Z,100171.84
2022-09-12T07:01:31.387Z,100174.38
2022-09-12T07:04:04.251Z,100171.84
2022-09-12T07:06:42.155Z,100177.31
2022-09-12T07:09:12.073Z,100169.34
2022-09-12T07:11:40.973Z,100175.63
2022-09-12T07:14:10.316Z,100175.72
2022-09-12T07:16:37.457Z,100175.72
2022-09-12T07:19:06.376Z,100172.25
2022-09-12T07:21:33.583Z,100175.00
2022-09-12T07:24:00.504Z,100181.19
2022-09-12T07:26:29.326Z,100188.31
2022-09-12T07:29:13.164Z,100176.00
2022-09-12T07:31:45.871Z,100177.91
2022-09-12T07:34:14.310Z,100173.34
2022-09-12T07:36:41.266Z,100172.59
2022-09-12T07:39:08.237Z,100169.13
2022-09-12T07:41:35.188Z,100169.13
2022-09-12T07:44:04.109Z,100177.09
2022-09-12T07:46:32.231Z,100183.25
2022-09-12T07:49:00.624Z,100180.59
2022-09-12T07:51:29.791Z,100177.22
2022-09-12T07:53:57.016Z,100179.88
2022-09-12T07:56:29.310Z,100182.53
2022-09-12T07:58:57.760Z,100179.00
2022-09-12T08:01:25.214Z,100181.69
2022-09-12T08:03:57.948Z,100183.38
2022-09-12T08:06:27.285Z,100182.53
2022-09-12T08:08:59.621Z,100183.38
2022-09-12T08:11:29.023Z,100179.88
2022-09-12T08:13:58.356Z,100176.34
2022-09-12T08:16:28.518Z,100174.53
2022-09-12T08:18:55.863Z,100180.00
2022-09-12T08:21:27.604Z,100175.53
2022-09-12T08:24:01.231Z,100165.69
2022-09-12T08:26:28.768Z,100171.88
2022-09-12T08:28:56.111Z,100166.44
2022-09-12T08:31:25.894Z,100171.88
2022-09-12T08:33:58.615Z,100161.13
2022-09-12T08:36:27.999Z,100159.19
2022-09-12T08:39:06.406Z,100156.38
2022-09-12T08:41:38.146Z,100156.38
2022-09-12T08:44:17.075Z,100157.09
2022-09-12T08:47:10.947Z,100164.97
2022-09-12T08:50:02.301Z,100163.16
2022-09-12T08:52:59.758Z,100174.53
2022-09-12T08:55:31.706Z,100175.38
2022-09-12T08:58:01.128Z,100176.34
2022-09-12T09:00:43.261Z,100166.41
2022-09-12T09:03:25.414Z,100172.56
2022-09-12T09:06:03.437Z,100166.28
2022-09-12T09:08:36.437Z,100175.00
2022-09-12T09:11:25.440Z,100168.72
2022-09-12T09:14:29.750Z,100164.09
2022-09-12T09:17:00.074Z,100175.47
2022-09-12T09:19:36.781Z,100179.69
2022-09-12T09:22:07.683Z,100172.41
2022-09-12T09:24:43.450Z,100183.91
2022-09-12T09:27:39.346Z,100173.25
2022-09-12T09:30:15.870Z,100182.00
2022-09-12T09:32:44.585Z,100182.72
2022-09-12T09:35:38.197Z,100177.38
2022-09-12T09:38:15.631Z,100189.44
2022-09-12T09:41:04.491Z,100198.19
2022-09-12T09:43:31.711Z,100190.91
2022-09-12T09:46:01.670Z,100192.47
2022-09-12T09:48:42.492Z,100200.31
2022-09-12T09:51:09.941Z,100188.00
2022-09-12T09:53:53.447Z,100193.31
2022-09-12T09:56:41.131Z,100198.38
2022-09-12T09:59:32.188Z,100206.13
2022-09-12T10:02:04.293Z,100197.16
2022-09-12T10:04:40.614Z,100208.53
2022-09-12T10:07:24.712Z,100199.44
2022-09-12T10:10:15.186Z,100206.34
2022-09-12T10:12:42.853Z,100200.91
2022-09-12T10:15:26.880Z,100198.09
2022-09-12T10:17:56.059Z,100203.16
2022-09-12T10:20:41.982Z,100214.53
2022-09-12T10:23:30.702Z,100215.28
2022-09-12T10:26:01.114Z,100222.16
2022-09-12T10:28:41.428Z,100226.41
2022-09-12T10:31:11.547Z,100228.94
2022-09-12T10:33:52.955Z,100224.59
2022-09-12T10:36:21.196Z,100232.31
2022-09-12T10:39:01.488Z,100225.19
2022-09-12T10:41:38.469Z,100221.56
2022-09-12T10:44:19.383Z,100232.06
2022-09-12T10:46:47.478Z,100237.31
2022-09-12T10:49:14.435Z,100245.16
2022-09-12T10:51:41.645Z,100240.94
2022-09-12T10:54:11.834Z,100245.00
2022-09-12T10:56:53.623Z,100242.34
2022-09-12T11:00:18.202Z,100248.66
2022-09-12T11:02:52.820Z,100253.00
2022-09-12T11:05:44.866Z,100262.72
2022-09-12T11:08:24.350Z,100258.22
2022-09-12T11:11:05.415Z,100258.22
2022-09-12T11:13:51.121Z,100256.16
2022-09-12T11:16:23.375Z,100256.88
2022-09-12T11:19:32.152Z,100256.88
2022-09-12T11:22:06.045Z,100243.66
2022-09-12T11:25:10.989Z,100241.38
2022-09-12T11:27:37.823Z,100239.81
2022-09-12T11:30:16.634Z,100241.38
2022-09-12T11:33:21.036Z,100240.28
2022-09-12T11:35:55.202Z,100232.44
2022-09-12T11:38:37.389Z,100235.81
2022-09-12T11:41:11.938Z,100240.16
2022-09-12T11:43:55.171Z,100242.34
2022-09-12T11:46:38.829Z,100239.97
2022-09-12T11:49:14.644Z,100237.31
2022-09-12T11:52:24.182Z,100242.88
2022-09-12T11:55:12.165Z,100252.69
2022-09-12T11:57:46.076Z,100244.56
2022-09-12T12:00:20.576Z,100238.25
2022-09-12T12:02:56.487Z,100243.84
2022-09-12T12:05:55.401Z,100248.91
2022-09-12T12:08:26.899Z,100247.09
2022-09-12T12:11:00.093Z,100253.41
2022-09-12T12:13:32.980Z,100260.44
2022-09-12T12:16:05.199Z,100258.88
2022-09-12T12:18:34.720Z,100255.34
2022-09-12T12:21:23.525Z,100263.09
2022-09-12T12:24:08.862Z,100256.19
2022-09-12T12:26:42.677Z,100247.47
2022-09-12T12:29:35.313Z,100250.88
2022-09-12T12:32:05.086Z,100252.78
2022-09-12T12:34:35.921Z,100265.16
2022-09-12T12:37:21.291Z,100268.94
2022-09-12T12:39:48.430Z,100271.69
2022-09-12T12:42:34.041Z,100285.13
2022-09-12T12:45:02.382Z,100282.47
2022-09-12T12:47:40.410Z,100276.28
2022-09-12T12:50:21.925Z,100285.28
2022-09-12T12:52:54.063Z,100288.53
2022-09-12T12:55:26.845Z,100293.97
2022-09-12T12:57:59.250Z,100296.63
2022-09-12T13:00:30.134Z,100293.97
2022-09-12T13:03:06.963Z,100292.28
2022-09-12T13:05:44.402Z,100293.75
2022-09-12T13:08:30.326Z,100301.75
2022-09-12T13:11:00.114Z,100301.63
2022-09-12T13:13:58.361Z,100298.94
2022-09-12T13:16:37.831Z,100292.91
2022-09-12T13:19:18.176Z,100297.13
2022-09-12T13:22:01.490Z,100302.59
2022-09-12T13:24:29.228Z,100295.44
2022-09-12T13:26:58.249Z,100294.81
2022-09-12T13:29:27.436Z,100286.72
2022-09-12T13:31:54.288Z,100287.56
2022-09-12T13:34:31.773Z,100289.50
2022-09-12T13:37:16.704Z,100276.28
2022-09-12T13:40:11.172Z,100279.22
2022-09-12T13:42:47.426Z,100262.25
2022-09-12T13:45:27.244Z,100282.59
2022-09-12T13:48:03.685Z,100272.91
2022-09-12T13:50:37.523Z,100273.16
2022-09-12T13:53:12.986Z,100276.91
2022-09-12T13:55:43.096Z,100278.88
2022-09-12T13:58:19.583Z,100280.44
2022-09-12T14:00:46.833Z,100277.06
2022-09-12T14:03:45.929Z,100281.66
2022-09-12T14:06:14.053Z,100278.16
2022-09-12T14:08:44.003Z,100282.50
2022-09-12T14:11:12.556Z,100277.06
2022-09-12T14:13:39.879Z,100282.38
2022-09-12T14:16:10.193Z,100280.81
2022-09-12T14:18:39.243Z,100287.09
2022-09-12T14:21:11.131Z,100298.88
2022-09-12T14:23:42.883Z,100302.88
2022-09-12T14:26:13.188Z,100303.00
2022-09-12T14:28:43.340Z,100302.00
2022-09-12T14:31:13.212Z,100301.28
2022-09-12T14:33:51.005Z,100292.69
2022-09-12T14:36:18.808Z,100300.69
2022-09-12T14:38:50.624Z,100299.13
2022-09-12T14:41:28.343Z,100300.13
2022-09-12T14:44:00.414Z,100294.16
2022-09-12T14:46:40.073Z,100298.41
2022-09-12T14:49:14.508Z,100294.88
2022-09-12T14:51:51.169Z,100299.25
2022-09-12T14:54:27.860Z,100298.41
2022-09-12T14:57:04.768Z,100292.38
2022-09-12T14:59:40.192Z,100293.22
2022-09-12T15:02:22.425Z,100299.50
2022-09-12T15:04:55.948Z,100305.69
2022-09-12T15:07:32.012Z,100305.06
2022-09-12T15:10:05.481Z,100305.06
2022-09-12T15:12:32.654Z,100302.41
2022-09-12T15:15:21.379Z,100320.47
2022-09-12T15:17:48.759Z,100329.41
2022-09-12T15:20:16.206Z,100310.63
2022-09-12T15:22:44.189Z,100316.81
2022-09-12T15:25:13.045Z,100319.47
2022-09-12T15:27:43.202Z,100325.41
2022-09-12T15:30:13.455Z,100326.28
2022-09-12T15:32:42.898Z,100321.66
2022-09-12T15:35:22.713Z,100327.47
2022-09-12T15:37:51.632Z,100331.31
2022-09-12T15:40:19.424Z,100334.13
2022-09-12T15:42:46.730Z,100329.28
2022-09-12T15:45:24.239Z,100329.28
2022-09-12T15:47:51.709Z,100323.00
2022-09-12T15:50:20.569Z,100330.13
2022-09-12T15:52:50.738Z,100321.41
2022-09-12T15:55:24.588Z,100325.03
2022-09-12T15:57:52.017Z,100310.75
2022-09-12T16:00:19.684Z,100310.75
2022-09-12T16:02:49.522Z,100316.34
2022-09-12T16:05:20.024Z,100320.69
2022-09-12T16:07:49.548Z,100319.97
2022-09-12T16:10:19.330Z,100314.53
2022-09-12T16:12:47.202Z,100309.06
2022-09-12T16:15:20.764Z,100308.94
2022-09-12T16:17:48.879Z,100305.44
2022-09-12T16:20:16.862Z,100298.41
2022-09-12T16:22:44.608Z,100309.66
2022-09-12T16:25:12.680Z,100307.84
2022-09-12T16:27:40.438Z,100305.19
2022-09-12T16:30:09.097Z,100298.16
2022-09-12T16:32:38.297Z,100304.19
2022-09-12T16:35:06.172Z,100300.69
2022-09-12T16:37:34.963Z,100308.56
2022-09-12T16:40:03.384Z,100307.72
2022-09-12T16:42:30.854Z,100318.84
2022-09-12T16:44:58.186Z,100308.56
2022-09-12T16:47:25.402Z,100316.19
2022-09-12T16:49:52.429Z,100322.97
2022-09-12T16:52:19.586Z,100323.22
2022-09-12T16:54:46.607Z,100320.41
2022-09-12T16:57:13.743Z,100326.59
2022-09-12T16:59:41.195Z,100336.41
2022-09-12T17:02:11.577Z,100332.06
2022-09-12T17:04:38.596Z,100334.84
2022-09-12T17:07:06.144Z,100340.06
2022-09-12T17:09:33.280Z,100335.69
2022-09-12T17:12:00.964Z,100336.63
2022-09-12T17:14:27.953Z,100333.50
2022-09-12T17:16:54.888Z,100340.28
2022-09-12T17:19:26.828Z,100342.22
2022-09-12T17:21:55.232Z,100341.25
2022-09-12T17:24:23.302Z,100339.53
2022-09-12T17:26:51.571Z,100350.19
2022-09-12T17:29:18.809Z,100347.69
2022-09-12T17:31:48.978Z,100351.19
2022-09-12T17:34:18.049Z,100349.47
2022-09-12T17:36:46.264Z,100369.38
2022-09-12T17:39:14.404Z,100364.88
2022-09-12T17:41:43.088Z,100370.44
2022-09-12T17:44:13.282Z,100367.03
2022-09-12T17:46:41.130Z,100368.75
2022-09-12T17:49:11.915Z,100366.44
2022-09-12T17:51:40.733Z,100371.28
2022-09-12T17:54:14.347Z,100373.47
2022-09-12T17:56:41.643Z,100368.50
2022-09-12T17:59:11.302Z,100379.13
2022-09-12T18:01:56.861Z,100370.56
2022-09-12T18:04:23.880Z,100375.38
2022-09-12T18:06:51.286Z,100377.72
2022-09-12T18:09:21.102Z,100376.63
2022-09-12T18:11:49.621Z,100387.13
2022-09-12T18:14:17.689Z,100388.94
2022-09-12T18:16:46.087Z,100390.66
2022-09-12T18:19:13.779Z,100397.69
2022-09-12T18:21:41.022Z,100402.53
2022-09-12T18:24:09.399Z,100413.88
2022-09-12T18:26:37.304Z,100414.84
2022-09-12T18:29:04.959Z,100408.97
2022-09-12T18:31:34.329Z,100407.53
2022-09-12T18:34:02.983Z,100395.88
2022-09-12T18:36:31.695Z,100414.22
2022-09-12T18:39:01.886Z,100423.78
2022-09-12T18:41:29.856Z,100424.91
2022-09-12T18:43:58.856Z,100431.34
2022-09-12T18:46:28.185Z,100421.56
2022-09-12T18:48:59.143Z,100416.88
2022-09-12T18:51:31.922Z,100421.72
2022-09-12T18:54:03.627Z,100417.00
2022-09-12T18:56:33.610Z,100428.28
2022-09-12T18:59:03.930Z,100430.78
2022-09-12T19:01:36.808Z,100439.53
2022-09-12T19:04:06.411Z,100438.44
2022-09-12T19:06:44.901Z,100437.59
2022-09-12T19:09:14.560Z,100439.03
2022-09-12T19:11:52.244Z,100449.59
2022-09-12T19:14:26.984Z,100453.84
2022-09-12T19:16:54.958Z,100459.88
2022-09-12T19:19:26.041Z,100459.16
2022-09-12T19:21:53.948Z,100470.31
2022-09-12T19:24:22.587Z,100472.00
2022-09-12T19:26:53.999Z,100477.34
2022-09-12T19:29:22.184Z,100486.91
2022-09-12T19:31:50.339Z,100496.69
2022-09-12T19:34:17.694Z,100495.59
2022-09-12T19:36:48.574Z,100501.88
2022-09-12T19:39:20.167Z,100505.28
2022-09-12T19:41:48.312Z,100506.59
2022-09-12T19:44:15.569Z,100509.75
2022-09-12T19:46:43.097Z,100505.03
2022-09-12T19:49:12.083Z,100504.19
2022-09-12T19:51:39.388Z,100502.97
2022-09-12T19:54:08.263Z,100494.97
2022-09-12T19:56:36.693Z,100494.25
2022-09-12T19:59:03.803Z,100486.03
2022-09-12T20:01:31.328Z,100488.25
2022-09-12T20:04:02.699Z,100488.25
2022-09-12T20:06:30.404Z,100498.75
2022-09-12T20:08:58.798Z,100507.38
2022-09-12T20:11:26.417Z,100514.38
2022-09-12T20:13:55.682Z,100522.13
2022-09-12T20:16:29.793Z,100526.38
2022-09-12T20:19:04.025Z,100538.75
2022-09-12T20:21:34.274Z,100532.56
2022-09-12T20:24:12.690Z,100535.00
2022-09-12T20:26:41.354Z,100540.19
2022-09-12T20:29:13.882Z,100542.75
2022-09-12T20:31:43.532Z,100553.41
2022-09-12T20:34:21.975Z,100543.47
2022-09-12T20:36:49.509Z,100548.94
2022-09-12T20:39:20.806Z,100548.94
2022-09-12T20:41:48.393Z,100548.66
2022-09-12T20:44:16.715Z,100548.81
2022-09-12T20:46:47.508Z,100551.47
2022-09-12T20:49:15.434Z,100560.19
2022-09-12T20:51:46.758Z,100553.75
2022-09-12T20:54:14.626Z,100549.53
2022-09-12T20:56:43.120Z,100555.34
2022-09-12T20:59:13.497Z,100552.91
2022-09-12T21:01:41.916Z,100550.25
2022-09-12T21:04:13.060Z,100556.34
2022-09-12T21:06:42.629Z,100557.91
2022-09-12T21:09:09.804Z,100565.03
2022-09-12T21:11:37.033Z,100556.09
2022-09-12T21:14:04.533Z,100574.00
2022-09-12T21:16:32.107Z,100568.56
2022-09-12T21:18:59.962Z,100574.75
2022-09-12T21:21:27.581Z,100584.41
2022-09-12T21:23:59.382Z,100583.47
2022-09-12T21:26:27.015Z,100583.47
2022-09-12T21:28:54.245Z,100584.19
2022-09-12T21:31:21.662Z,100585.91
2022-09-12T21:33:50.069Z,100591.47
2022-09-12T21:36:17.781Z,100575.69
2022-09-12T21:38:44.960Z,100583.78
2022-09-12T21:41:15.975Z,100586.81
2022-09-12T21:43:43.389Z,100585.59
2022-09-12T21:46:11.150Z,100578.56
2022-09-12T21:48:38.589Z,100573.38
2022-09-12T21:51:06.163Z,100585.09
2022-09-12T21:53:33.603Z,100589.09
2022-09-12T21:56:07.487Z,100586.28
2022-09-12T21:58:35.171Z,100597.31
2022-09-12T22:01:02.362Z,100596.56
2022-09-12T22:03:30.257Z,100600.19
2022-09-12T22:06:02.049Z,100602.97
2022-09-12T22:08:30.637Z,100601.28
2022-09-12T22:11:02.510Z,100600.31
2022-09-12T22:13:31.794Z,100600.66
2022-09-12T22:15:59.336Z,100603.44
2022-09-12T22:18:26.280Z,100604.38
2022-09-12T22:21:01.028Z,100606.22
2022-09-12T22:23:46.697Z,100610.69
2022-09-12T22:26:14.547Z,100615.16
2022-09-12T22:28:41.938Z,100618.91
2022-09-12T22:31:14.266Z,100622.31
2022-09-12T22:33:41.814Z,100624.09
2022-09-12T22:36:10.263Z,100625.81
2022-09-12T22:38:37.557Z,100631.25
2022-09-12T22:41:06.408Z,100633.91
2022-09-12T22:43:34.737Z,100629.44
2022-09-12T22:46:02.296Z,100621.56
2022-09-12T22:48:29.197Z,100620.72
2022-09-12T22:50:56.254Z,100614.66
2022-09-12T22:53:23.268Z,100606.03
2022-09-12T22:55:50.654Z,100609.06
2022-09-12T22:58:17.590Z,100611.81
2022-09-12T23:00:50.482Z,100609.91
2022-09-12T23:03:20.795Z,100624.91
2022-09-12T23:05:48.560Z,100628.44
2022-09-12T23:08:19.606Z,100630.22
2022-09-12T23:10:47.111Z,100638.22
2022-09-12T23:13:14.093Z,100632.16
2022-09-12T23:15:40.907Z,100632.16
2022-09-12T23:18:08.708Z,100635.69
2022-09-12T23:20:35.506Z,100622.47
2022-09-12T23:23:02.316Z,100627.78
2022-09-12T23:25:29.286Z,100619.06
2022-09-12T23:27:56.130Z,100619.06
2022-09-12T23:30:23.021Z,100627.91
2022-09-12T23:32:49.946Z,100630.81
2022-09-12T23:35:19.733Z,100632.50
2022-09-12T23:37:47.794Z,100629.09
2022-09-12T23:40:14.830Z,100628.50
2022-09-12T23:42:41.769Z,100634.03
2022-09-12T23:45:10.592Z,100629.66
2022-09-12T23:47:37.591Z,100632.31
2022-09-12T23:50:04.908Z,100633.19
2022-09-12T23:52:31.805Z,100650.84
2022-09-12T23:54:58.626Z,100652.78
2022-09-12T23:57:25.528Z,100657.25
2022-09-12T23:59:52.346Z,100650.94
